createdAt,value
2018-05-12T00:00:07.112Z,99597.36
2018-05-12T00:00:38.317Z,99602.20
2018-05-12T00:01:09.527Z,99600.45
2018-05-12T00:01:40.732Z,99601.80
2018-05-12T00:02:11.953Z,99597.06
2018-05-12T00:02:43.210Z,99599.33
2018-05-12T00:03:14.425Z,99596.73
2018-05-12T00:03:46.351Z,99593.71
2018-05-12T00:04:17.608Z,99598.92
2018-05-12T00:04:48.820Z,99597.14
2018-05-12T00:05:20.032Z,99598.92
2018-05-12T00:05:51.342Z,99593.17
2018-05-12T00:06:22.502Z,99594.98
2018-05-12T00:06:53.712Z,99594.95
2018-05-12T00:07:24.926Z,99597.14
2018-05-12T00:07:56.147Z,99592.41
2018-05-12T00:08:27.385Z,99592.44
2018-05-12T00:08:58.625Z,99591.13
2018-05-12T00:09:29.847Z,99592.44
2018-05-12T00:10:01.061Z,99590.77
2018-05-12T00:10:32.272Z,99592.91
2018-05-12T00:11:03.481Z,99586.42
2018-05-12T00:11:34.698Z,99588.58
2018-05-12T00:12:05.922Z,99589.95
2018-05-12T00:12:37.180Z,99588.21
2018-05-12T00:13:08.371Z,99589.92
2018-05-12T00:13:39.585Z,99591.63
2018-05-12T00:14:10.792Z,99591.63
2018-05-12T00:14:42.001Z,99589.41
2018-05-12T00:15:13.222Z,99592.00
2018-05-12T00:15:44.454Z,99590.73
2018-05-12T00:16:15.684Z,99596.37
2018-05-12T00:16:46.930Z,99588.94
2018-05-12T00:17:18.136Z,99578.77
2018-05-12T00:17:49.401Z,99592.47
2018-05-12T00:18:20.633Z,99588.51
2018-05-12T00:18:51.900Z,99595.06
2018-05-12T00:19:23.114Z,99591.20
2018-05-12T00:19:54.314Z,99588.21
2018-05-12T00:20:25.506Z,99584.28
2018-05-12T00:20:56.744Z,99589.56
2018-05-12T00:21:28.021Z,99592.18
2018-05-12T00:21:59.229Z,99590.91
2018-05-12T00:22:30.438Z,99586.61
2018-05-12T00:23:01.684Z,99586.28
2018-05-12T00:23:32.897Z,99587.55
2018-05-12T00:24:04.178Z,99582.74
2018-05-12T00:24:35.393Z,99582.34
2018-05-12T00:25:06.605Z,99584.89
2018-05-12T00:25:37.874Z,99590.20
2018-05-12T00:26:09.425Z,99589.87
2018-05-12T00:26:40.642Z,99584.78
2018-05-12T00:27:11.858Z,99585.76
2018-05-12T00:27:43.066Z,99582.84
2018-05-12T00:28:14.319Z,99582.54
2018-05-12T00:28:45.511Z,99583.95
2018-05-12T00:29:16.763Z,99581.52
2018-05-12T00:29:47.978Z,99584.30
2018-05-12T00:30:19.225Z,99582.73
2018-05-12T00:30:50.429Z,99579.34
2018-05-12T00:31:21.641Z,99581.66
2018-05-12T00:31:52.870Z,99586.97
2018-05-12T00:32:24.392Z,99579.62
2018-05-12T00:32:56.386Z,99588.35
2018-05-12T00:33:27.594Z,99586.20
2018-05-12T00:33:58.857Z,99587.08
2018-05-12T00:34:30.107Z,99581.00
2018-05-12T00:35:01.329Z,99582.74
2018-05-12T00:35:32.547Z,99581.43
2018-05-12T00:36:03.757Z,99581.50
2018-05-12T00:36:34.983Z,99588.39
2018-05-12T00:37:06.174Z,99582.70
2018-05-12T00:37:37.387Z,99581.80
2018-05-12T00:38:08.601Z,99581.03
2018-05-12T00:38:39.870Z,99584.92
2018-05-12T00:39:11.068Z,99588.92
2018-05-12T00:39:42.271Z,99585.50
2018-05-12T00:40:13.522Z,99589.43
2018-05-12T00:40:44.735Z,99588.16
2018-05-12T00:41:15.947Z,99587.72
2018-05-12T00:41:47.166Z,99586.44
2018-05-12T00:42:18.406Z,99589.46
2018-05-12T00:42:49.629Z,99581.94
2018-05-12T00:43:20.837Z,99584.09
2018-05-12T00:43:52.090Z,99581.40
2018-05-12T00:44:23.310Z,99518.78
2018-05-12T00:44:54.525Z,99580.69
2018-05-12T00:45:25.755Z,99573.34
2018-05-12T00:45:57.001Z,99580.42
2018-05-12T00:46:28.226Z,99577.44
2018-05-12T00:46:59.486Z,99576.23
2018-05-12T00:47:30.695Z,99579.36
2018-05-12T00:48:01.916Z,99579.45
2018-05-12T00:48:33.129Z,99579.13
2018-05-12T00:49:04.974Z,99582.28
2018-05-12T00:49:36.201Z,99583.19
2018-05-12T00:50:07.419Z,99576.20
2018-05-12T00:50:38.641Z,99582.72
2018-05-12T00:51:09.846Z,99586.14
2018-05-12T00:51:41.091Z,99585.09
2018-05-12T00:52:12.296Z,99588.48
2018-05-12T00:52:43.570Z,99594.13
2018-05-12T00:53:14.781Z,99588.42
2018-05-12T00:53:46.004Z,99591.92
2018-05-12T00:54:17.289Z,99592.35
2018-05-12T00:54:48.501Z,99585.80
2018-05-12T00:55:19.724Z,99587.58
2018-05-12T00:55:50.935Z,99587.15
2018-05-12T00:56:22.163Z,99588.05
2018-05-12T00:56:53.393Z,99585.03
2018-05-12T00:57:24.614Z,99583.22
2018-05-12T00:57:55.829Z,99581.14
2018-05-12T00:58:27.036Z,99588.09
2018-05-12T00:58:58.257Z,99588.96
2018-05-12T00:59:29.508Z,99586.47
2018-05-12T01:00:00.733Z,99580.53
2018-05-12T01:00:32.062Z,99587.62
2018-05-12T01:01:03.280Z,99588.59
2018-05-12T01:01:34.529Z,99586.57
2018-05-12T01:02:05.741Z,99587.55
2018-05-12T01:02:36.947Z,99591.57
2018-05-12T01:03:08.178Z,99586.80
2018-05-12T01:03:39.400Z,99589.11
2018-05-12T01:04:10.625Z,99597.50
2018-05-12T01:04:41.839Z,99593.17
2018-05-12T01:05:13.093Z,99598.81
2018-05-12T01:05:44.301Z,99595.36
2018-05-12T01:06:15.529Z,99594.92
2018-05-12T01:06:46.765Z,99599.19
2018-05-12T01:07:17.976Z,99596.60
2018-05-12T01:07:49.212Z,99601.44
2018-05-12T01:08:20.446Z,99599.22
2018-05-12T01:08:51.701Z,99599.69
2018-05-12T01:09:22.939Z,99605.73
2018-05-12T01:09:54.139Z,99600.03
2018-05-12T01:10:25.387Z,99601.80
2018-05-12T01:10:56.605Z,99593.08
2018-05-12T01:11:27.865Z,99605.73
2018-05-12T01:11:59.077Z,99598.78
2018-05-12T01:12:30.287Z,99598.38
2018-05-12T01:13:01.499Z,99600.13
2018-05-12T01:13:32.814Z,99598.01
2018-05-12T01:14:03.981Z,99598.11
2018-05-12T01:14:35.272Z,99596.42
2018-05-12T01:15:06.443Z,99600.41
2018-05-12T01:15:37.653Z,99597.86
2018-05-12T01:16:08.865Z,99597.05
2018-05-12T01:16:40.138Z,99597.62
2018-05-12T01:17:11.364Z,99594.66
2018-05-12T01:17:42.577Z,99595.97
2018-05-12T01:18:13.841Z,99592.95
2018-05-12T01:18:45.049Z,99595.13
2018-05-12T01:19:16.340Z,99598.19
2018-05-12T01:19:47.564Z,99599.12
2018-05-12T01:20:18.781Z,99592.61
2018-05-12T01:20:50.004Z,99589.11
2018-05-12T01:21:21.204Z,99598.25
2018-05-12T01:21:52.416Z,99596.06
2018-05-12T01:22:23.621Z,99596.53
2018-05-12T01:22:54.830Z,99593.45
2018-05-12T01:23:26.096Z,99591.23
2018-05-12T01:23:57.305Z,99599.46
2018-05-12T01:24:28.662Z,99598.19
2018-05-12T01:24:59.879Z,99602.14
2018-05-12T01:25:31.095Z,99598.68
2018-05-12T01:26:02.296Z,99600.42
2018-05-12T01:26:33.562Z,99603.02
2018-05-12T01:27:04.780Z,99602.58
2018-05-12T01:27:35.976Z,99596.00
2018-05-12T01:28:07.176Z,99597.28
2018-05-12T01:28:38.390Z,99597.27
2018-05-12T01:29:09.621Z,99599.46
2018-05-12T01:29:40.828Z,99595.91
2018-05-12T01:30:12.037Z,99594.94
2018-05-12T01:30:43.241Z,99596.62
2018-05-12T01:31:14.454Z,99598.33
2018-05-12T01:31:45.737Z,99598.33
2018-05-12T01:32:16.935Z,99599.14
2018-05-12T01:32:48.130Z,99601.31
2018-05-12T01:33:19.343Z,99598.33
2018-05-12T01:33:50.558Z,99601.38
2018-05-12T01:34:21.760Z,99600.17
2018-05-12T01:34:52.969Z,99600.27
2018-05-12T01:35:24.172Z,99604.70
2018-05-12T01:35:55.393Z,99602.08
2018-05-12T01:36:26.596Z,99604.66
2018-05-12T01:36:57.857Z,99603.39
2018-05-12T01:37:29.077Z,99607.34
2018-05-12T01:38:00.285Z,99603.82
2018-05-12T01:38:31.535Z,99601.98
2018-05-12T01:39:03.441Z,99610.20
2018-05-12T01:39:34.710Z,99605.34
2018-05-12T01:40:05.933Z,99603.94
2018-05-12T01:40:37.142Z,99606.09
2018-05-12T01:41:08.397Z,99609.11
2018-05-12T01:41:39.622Z,99611.27
2018-05-12T01:42:10.835Z,99610.39
2018-05-12T01:42:42.572Z,99608.58
2018-05-12T01:43:14.565Z,99605.86
2018-05-12T01:43:45.786Z,99609.56
2018-05-12T01:44:16.996Z,99606.47
2018-05-12T01:44:48.205Z,99604.13
2018-05-12T01:45:19.415Z,99605.75
2018-05-12T01:45:50.673Z,99601.25
2018-05-12T01:46:21.906Z,99609.41
2018-05-12T01:46:53.103Z,99601.86
2018-05-12T01:47:24.354Z,99605.66
2018-05-12T01:47:55.574Z,99603.80
2018-05-12T01:48:26.795Z,99601.62
2018-05-12T01:48:58.042Z,99599.51
2018-05-12T01:49:29.263Z,99601.39
2018-05-12T01:50:00.477Z,99600.17
2018-05-12T01:50:31.718Z,99598.03
2018-05-12T01:51:02.976Z,99598.47
2018-05-12T01:51:34.197Z,99594.94
2018-05-12T01:52:05.410Z,99601.86
2018-05-12T01:52:36.615Z,99598.77
2018-05-12T01:53:07.856Z,99600.11
2018-05-12T01:53:39.077Z,99597.09
2018-05-12T01:54:11.103Z,99597.49
2018-05-12T01:54:42.310Z,99594.06
2018-05-12T01:55:13.521Z,99596.72
2018-05-12T01:55:44.744Z,99597.25
2018-05-12T01:56:16.066Z,99594.60
2018-05-12T01:56:47.268Z,99603.77
2018-05-12T01:57:18.477Z,99603.33
2018-05-12T01:57:49.681Z,99598.53
2018-05-12T01:58:20.903Z,99591.98
2018-05-12T01:58:52.169Z,99602.92
2018-05-12T01:59:23.377Z,99595.20
2018-05-12T01:59:54.589Z,99601.31
2018-05-12T02:00:25.798Z,99602.59
2018-05-12T02:00:57.051Z,99600.38
2018-05-12T02:01:28.310Z,99604.27
2018-05-12T02:01:59.581Z,99597.72
2018-05-12T02:02:30.796Z,99596.45
2018-05-12T02:03:02.006Z,99597.38
2018-05-12T02:03:33.248Z,99598.77
2018-05-12T02:04:04.505Z,99601.48
2018-05-12T02:04:35.720Z,99598.05
2018-05-12T02:05:06.943Z,99600.23
2018-05-12T02:05:38.150Z,99603.83
2018-05-12T02:06:09.360Z,99599.09
2018-05-12T02:06:40.581Z,99594.89
2018-05-12T02:07:11.845Z,99595.45
2018-05-12T02:07:43.053Z,99596.86
2018-05-12T02:08:14.264Z,99595.68
2018-05-12T02:08:45.478Z,99589.67
2018-05-12T02:09:16.698Z,99593.19
2018-05-12T02:09:47.891Z,99592.31
2018-05-12T02:10:19.103Z,99594.06
2018-05-12T02:10:50.328Z,99590.14
2018-05-12T02:11:21.540Z,99589.20
2018-05-12T02:11:52.778Z,99590.10
2018-05-12T02:12:24.022Z,99582.66
2018-05-12T02:12:55.270Z,99591.81
2018-05-12T02:13:26.497Z,99582.22
2018-05-12T02:13:58.327Z,99590.41
2018-05-12T02:14:29.667Z,99586.95
2018-05-12T02:15:00.888Z,99583.87
2018-05-12T02:15:32.096Z,99591.22
2018-05-12T02:16:03.311Z,99586.86
2018-05-12T02:16:34.525Z,99585.02
2018-05-12T02:17:05.788Z,99586.79
2018-05-12T02:17:37.056Z,99588.97
2018-05-12T02:18:08.261Z,99585.02
2018-05-12T02:18:39.469Z,99586.72
2018-05-12T02:19:10.678Z,99586.32
2018-05-12T02:19:41.887Z,99587.27
2018-05-12T02:20:13.114Z,99587.73
2018-05-12T02:20:44.322Z,99585.58
2018-05-12T02:21:15.582Z,99591.72
2018-05-12T02:21:46.823Z,99593.03
2018-05-12T02:22:18.035Z,99588.33
2018-05-12T02:22:49.294Z,99589.60
2018-05-12T02:23:20.508Z,99579.20
2018-05-12T02:23:51.705Z,99588.42
2018-05-12T02:24:22.918Z,99590.23
2018-05-12T02:24:54.129Z,99591.20
2018-05-12T02:25:25.341Z,99589.92
2018-05-12T02:25:56.598Z,99591.20
2018-05-12T02:26:27.805Z,99586.47
2018-05-12T02:26:59.029Z,99583.88
2018-05-12T02:27:30.246Z,99590.95
2018-05-12T02:28:01.453Z,99588.38
2018-05-12T02:28:32.684Z,99588.84
2018-05-12T02:29:03.898Z,99586.25
2018-05-12T02:29:35.136Z,99587.53
2018-05-12T02:30:06.385Z,99588.47
2018-05-12T02:30:37.611Z,99586.75
2018-05-12T02:31:08.820Z,99585.51
2018-05-12T02:31:40.096Z,99582.92
2018-05-12T02:32:11.306Z,99589.43
2018-05-12T02:32:42.525Z,99584.20
2018-05-12T02:33:13.740Z,99582.45
2018-05-12T02:33:44.966Z,99578.53
2018-05-12T02:34:16.213Z,99582.89
2018-05-12T02:34:47.425Z,99583.73
2018-05-12T02:35:18.687Z,99580.67
2018-05-12T02:35:49.913Z,99578.00
2018-05-12T02:36:21.121Z,99583.64
2018-05-12T02:36:52.355Z,99575.31
2018-05-12T02:37:23.604Z,99583.17
2018-05-12T02:37:54.833Z,99583.17
2018-05-12T02:38:26.045Z,99582.23
2018-05-12T02:38:57.263Z,99583.07
2018-05-12T02:39:28.481Z,99579.52
2018-05-12T02:39:59.741Z,99578.71
2018-05-12T02:40:30.950Z,99577.44
2018-05-12T02:41:02.161Z,99580.08
2018-05-12T02:41:33.388Z,99578.77
2018-05-12T02:42:04.602Z,99582.30
2018-05-12T02:42:35.827Z,99582.77
2018-05-12T02:43:07.054Z,99585.41
2018-05-12T02:43:38.265Z,99585.01
2018-05-12T02:44:09.497Z,99588.06
2018-05-12T02:44:40.709Z,99581.98
2018-05-12T02:45:11.962Z,99585.94
2018-05-12T02:45:43.204Z,99587.25
2018-05-12T02:46:14.458Z,99587.63
2018-05-12T02:46:45.714Z,99594.55
2018-05-12T02:47:16.921Z,99587.06
2018-05-12T02:47:48.130Z,99590.05
2018-05-12T02:48:19.337Z,99587.88
2018-05-12T02:48:50.546Z,99587.80
2018-05-12T02:49:21.793Z,99592.11
2018-05-12T02:49:53.026Z,99585.97
2018-05-12T02:50:24.274Z,99588.55
2018-05-12T02:50:55.532Z,99587.65
2018-05-12T02:51:26.744Z,99587.20
2018-05-12T02:51:57.983Z,99586.80
2018-05-12T02:52:29.188Z,99586.88
2018-05-12T02:53:01.889Z,99584.28
2018-05-12T02:53:33.107Z,99587.80
2018-05-12T02:54:04.349Z,99590.02
2018-05-12T02:54:35.604Z,99590.55
2018-05-12T02:55:06.837Z,99592.39
2018-05-12T02:55:38.047Z,99589.78
2018-05-12T02:56:09.261Z,99590.21
2018-05-12T02:56:40.546Z,99590.65
2018-05-12T02:57:11.762Z,99601.59
2018-05-12T02:57:42.954Z,99595.91
2018-05-12T02:58:14.235Z,99595.98
2018-05-12T02:58:45.448Z,99597.31
2018-05-12T02:59:16.726Z,99599.03
2018-05-12T02:59:47.929Z,99599.44
2018-05-12T03:00:19.144Z,99606.76
2018-05-12T03:00:50.384Z,99602.33
2018-05-12T03:01:21.605Z,99606.22
2018-05-12T03:01:52.827Z,99604.48
2018-05-12T03:02:24.041Z,99606.63
2018-05-12T03:02:55.250Z,99605.26
2018-05-12T03:03:26.517Z,99603.48
2018-05-12T03:03:57.778Z,99611.70
2018-05-12T03:04:29.005Z,99609.49
2018-05-12T03:05:00.220Z,99607.75
2018-05-12T03:05:31.433Z,99608.16
2018-05-12T03:06:02.678Z,99607.72
2018-05-12T03:06:33.894Z,99610.23
2018-05-12T03:07:05.115Z,99604.94
2018-05-12T03:07:36.325Z,99606.16
2018-05-12T03:08:07.553Z,99613.50
2018-05-12T03:08:38.827Z,99606.56
2018-05-12T03:09:10.033Z,99611.30
2018-05-12T03:09:41.264Z,99611.27
2018-05-12T03:10:12.533Z,99610.77
2018-05-12T03:10:43.741Z,99612.81
2018-05-12T03:11:14.949Z,99618.39
2018-05-12T03:11:46.179Z,99610.44
2018-05-12T03:12:17.384Z,99610.84
2018-05-12T03:12:48.593Z,99612.95
2018-05-12T03:13:19.814Z,99612.02
2018-05-12T03:13:51.061Z,99611.11
2018-05-12T03:14:22.285Z,99611.55
2018-05-12T03:14:53.509Z,99612.39
2018-05-12T03:15:24.741Z,99608.94
2018-05-12T03:15:55.953Z,99616.83
2018-05-12T03:16:27.173Z,99616.32
2018-05-12T03:16:58.390Z,99612.26
2018-05-12T03:17:29.605Z,99613.91
2018-05-12T03:18:01.263Z,99615.59
2018-05-12T03:18:32.505Z,99613.34
2018-05-12T03:19:03.714Z,99611.90
2018-05-12T03:19:34.942Z,99614.75
2018-05-12T03:20:06.182Z,99615.02
2018-05-12T03:20:37.385Z,99610.93
2018-05-12T03:21:08.598Z,99607.27
2018-05-12T03:21:39.809Z,99608.07
2018-05-12T03:22:11.015Z,99608.95
2018-05-12T03:22:42.948Z,99604.52
2018-05-12T03:23:14.156Z,99607.06
2018-05-12T03:23:45.372Z,99607.33
2018-05-12T03:24:16.693Z,99608.88
2018-05-12T03:24:47.883Z,99604.66
2018-05-12T03:25:19.089Z,99607.58
2018-05-12T03:25:50.311Z,99606.75
2018-05-12T03:26:21.525Z,99605.59
2018-05-12T03:26:52.774Z,99606.45
2018-05-12T03:27:23.981Z,99603.44
2018-05-12T03:27:55.188Z,99606.14
2018-05-12T03:28:26.436Z,99598.49
2018-05-12T03:28:57.652Z,99610.37
2018-05-12T03:29:28.953Z,99609.20
2018-05-12T03:30:00.208Z,99604.94
2018-05-12T03:30:31.446Z,99602.81
2018-05-12T03:31:02.729Z,99605.88
2018-05-12T03:31:33.953Z,99604.46
2018-05-12T03:32:05.164Z,99606.70
2018-05-12T03:32:36.379Z,99601.98
2018-05-12T03:33:07.589Z,99605.83
2018-05-12T03:33:38.805Z,99601.85
2018-05-12T03:34:10.018Z,99599.66
2018-05-12T03:34:41.220Z,99605.75
2018-05-12T03:35:12.464Z,99603.67
2018-05-12T03:35:43.677Z,99601.44
2018-05-12T03:36:14.911Z,99600.03
2018-05-12T03:36:46.134Z,99607.38
2018-05-12T03:37:17.345Z,99586.27
2018-05-12T03:37:48.567Z,99604.11
2018-05-12T03:38:19.781Z,99603.95
2018-05-12T03:38:50.984Z,99603.05
2018-05-12T03:39:22.203Z,99604.32
2018-05-12T03:39:53.470Z,99607.92
2018-05-12T03:40:24.715Z,99605.69
2018-05-12T03:40:55.943Z,99606.60
2018-05-12T03:41:27.161Z,99608.67
2018-05-12T03:41:58.420Z,99610.41
2018-05-12T03:42:29.666Z,99606.63
2018-05-12T03:43:00.896Z,99611.72
2018-05-12T03:43:32.114Z,99608.59
2018-05-12T03:44:03.333Z,99606.14
2018-05-12T03:44:34.569Z,99613.98
2018-05-12T03:45:05.785Z,99609.22
2018-05-12T03:45:36.996Z,99614.91
2018-05-12T03:46:08.215Z,99607.91
2018-05-12T03:46:39.434Z,99612.52
2018-05-12T03:47:10.712Z,99591.81
2018-05-12T03:47:41.925Z,99610.95
2018-05-12T03:48:13.137Z,99609.84
2018-05-12T03:48:44.341Z,99609.61
2018-05-12T03:49:15.549Z,99612.45
2018-05-12T03:49:46.802Z,99610.88
2018-05-12T03:50:18.020Z,99610.14
2018-05-12T03:50:49.265Z,99606.64
2018-05-12T03:51:20.479Z,99610.33
2018-05-12T03:51:51.697Z,99609.33
2018-05-12T03:52:22.957Z,99614.50
2018-05-12T03:52:54.175Z,99615.27
2018-05-12T03:53:25.390Z,99608.03
2018-05-12T03:53:56.593Z,99608.94
2018-05-12T03:54:27.815Z,99610.46
2018-05-12T03:54:59.064Z,99610.38
2018-05-12T03:55:30.317Z,99606.91
2018-05-12T03:56:01.527Z,99610.56
2018-05-12T03:56:32.750Z,99609.91
2018-05-12T03:57:03.962Z,99608.28
2018-05-12T03:57:35.179Z,99612.08
2018-05-12T03:58:06.396Z,99614.23
2018-05-12T03:58:37.617Z,99616.83
2018-05-12T03:59:08.834Z,99609.23
2018-05-12T03:59:40.098Z,99615.61
2018-05-12T04:00:11.300Z,99612.13
2018-05-12T04:00:42.518Z,99610.13
2018-05-12T04:01:13.842Z,99607.03
2018-05-12T04:01:45.074Z,99610.62
2018-05-12T04:02:16.280Z,99615.75
2018-05-12T04:02:47.492Z,99611.66
2018-05-12T04:03:18.713Z,99615.50
2018-05-12T04:03:49.922Z,99606.00
2018-05-12T04:04:21.126Z,99613.30
2018-05-12T04:04:52.353Z,99610.00
2018-05-12T04:05:23.637Z,99613.43
2018-05-12T04:05:54.853Z,99612.09
2018-05-12T04:06:26.113Z,99611.02
2018-05-12T04:06:57.321Z,99607.89
2018-05-12T04:07:28.562Z,99610.06
2018-05-12T04:07:59.792Z,99613.73
2018-05-12T04:08:31.084Z,99612.98
2018-05-12T04:09:02.248Z,99609.92
2018-05-12T04:09:33.457Z,99614.52
2018-05-12T04:10:04.718Z,99618.33
2018-05-12T04:10:35.987Z,99622.45
2018-05-12T04:11:07.223Z,99612.96
2018-05-12T04:11:38.473Z,99616.87
2018-05-12T04:12:09.701Z,99614.66
2018-05-12T04:12:40.952Z,99616.38
2018-05-12T04:13:12.201Z,99614.23
2018-05-12T04:13:43.777Z,99611.26
2018-05-12T04:14:14.993Z,99614.45
2018-05-12T04:14:46.214Z,99611.38
2018-05-12T04:15:17.532Z,99609.16
2018-05-12T04:15:48.737Z,99613.85
2018-05-12T04:16:19.940Z,99611.95
2018-05-12T04:16:51.181Z,99610.17
2018-05-12T04:17:22.406Z,99615.98
2018-05-12T04:17:53.609Z,99619.61
2018-05-12T04:18:24.828Z,99618.40
2018-05-12T04:18:56.043Z,99617.63
2018-05-12T04:19:27.257Z,99614.05
2018-05-12T04:19:58.471Z,99616.89
2018-05-12T04:20:29.718Z,99619.23
2018-05-12T04:21:01.016Z,99620.17
2018-05-12T04:21:32.238Z,99621.28
2018-05-12T04:22:03.470Z,99615.87
2018-05-12T04:22:34.738Z,99617.69
2018-05-12T04:23:05.957Z,99620.80
2018-05-12T04:23:37.165Z,99624.02
2018-05-12T04:24:08.408Z,99626.44
2018-05-12T04:24:39.627Z,99626.66
2018-05-12T04:25:10.840Z,99618.84
2018-05-12T04:25:42.044Z,99624.07
2018-05-12T04:26:13.328Z,99621.03
2018-05-12T04:26:44.545Z,99623.92
2018-05-12T04:27:15.755Z,99620.32
2018-05-12T04:27:47.010Z,99621.55
2018-05-12T04:28:18.238Z,99623.19
2018-05-12T04:28:49.460Z,99620.10
2018-05-12T04:29:20.699Z,99623.91
2018-05-12T04:29:51.909Z,99619.59
2018-05-12T04:30:23.146Z,99623.11
2018-05-12T04:30:54.372Z,99623.38
2018-05-12T04:31:25.581Z,99622.02
2018-05-12T04:31:56.816Z,99618.09
2018-05-12T04:32:28.071Z,99623.56
2018-05-12T04:32:59.307Z,99619.17
2018-05-12T04:33:30.518Z,99621.91
2018-05-12T04:34:01.729Z,99620.42
2018-05-12T04:34:33.907Z,99625.01
2018-05-12T04:35:05.239Z,99631.77
2018-05-12T04:35:36.448Z,99626.77
2018-05-12T04:36:07.670Z,99627.89
2018-05-12T04:36:38.895Z,99631.53
2018-05-12T04:37:10.113Z,99635.02
2018-05-12T04:37:41.401Z,99631.92
2018-05-12T04:38:12.604Z,99630.11
2018-05-12T04:38:43.835Z,99636.80
2018-05-12T04:39:15.043Z,99634.98
2018-05-12T04:39:46.250Z,99638.14
2018-05-12T04:40:17.526Z,99634.60
2018-05-12T04:40:48.750Z,99636.80
2018-05-12T04:41:19.969Z,99631.10
2018-05-12T04:41:51.186Z,99631.31
2018-05-12T04:42:22.418Z,99634.84
2018-05-12T04:42:53.750Z,99635.83
2018-05-12T04:43:25.039Z,99639.02
2018-05-12T04:43:56.293Z,99637.80
2018-05-12T04:44:27.505Z,99647.48
2018-05-12T04:44:58.721Z,99640.96
2018-05-12T04:45:29.951Z,99632.75
2018-05-12T04:46:01.165Z,99634.07
2018-05-12T04:46:32.377Z,99637.78
2018-05-12T04:47:03.584Z,99635.75
2018-05-12T04:47:34.789Z,99636.78
2018-05-12T04:48:06.052Z,99635.23
2018-05-12T04:48:37.261Z,99640.41
2018-05-12T04:49:08.477Z,99635.64
2018-05-12T04:49:39.693Z,99638.43
2018-05-12T04:50:10.906Z,99635.27
2018-05-12T04:50:42.178Z,99636.95
2018-05-12T04:51:13.393Z,99637.58
2018-05-12T04:51:44.592Z,99634.80
2018-05-12T04:52:15.806Z,99633.84
2018-05-12T04:52:47.041Z,99638.55
2018-05-12T04:53:18.297Z,99637.81
2018-05-12T04:53:49.501Z,99637.70
2018-05-12T04:54:20.804Z,99639.38
2018-05-12T04:54:51.965Z,99638.39
2018-05-12T04:55:23.245Z,99646.80
2018-05-12T04:55:54.457Z,99643.27
2018-05-12T04:56:25.670Z,99638.19
2018-05-12T04:56:56.897Z,99643.77
2018-05-12T04:57:28.172Z,99646.55
2018-05-12T04:57:59.401Z,99638.00
2018-05-12T04:58:30.618Z,99643.89
2018-05-12T04:59:01.829Z,99643.69
2018-05-12T04:59:33.085Z,99646.02
2018-05-12T05:00:04.298Z,99649.15
2018-05-12T05:00:35.528Z,99639.91
2018-05-12T05:01:06.754Z,99644.72
2018-05-12T05:01:37.966Z,99640.21
2018-05-12T05:02:09.191Z,99639.44
2018-05-12T05:02:40.401Z,99637.03
2018-05-12T05:03:11.629Z,99640.55
2018-05-12T05:03:42.841Z,99634.13
2018-05-12T05:04:14.049Z,99630.51
2018-05-12T05:04:45.282Z,99630.63
2018-05-12T05:05:16.484Z,99631.60
2018-05-12T05:05:47.692Z,99628.45
2018-05-12T05:06:18.902Z,99632.78
2018-05-12T05:06:50.155Z,99632.28
2018-05-12T05:07:21.368Z,99628.33
2018-05-12T05:07:52.583Z,99627.31
2018-05-12T05:08:23.793Z,99627.77
2018-05-12T05:08:55.005Z,99625.41
2018-05-12T05:09:26.240Z,99628.70
2018-05-12T05:09:57.453Z,99618.92
2018-05-12T05:10:28.675Z,99619.56
2018-05-12T05:10:59.899Z,99617.02
2018-05-12T05:11:31.140Z,99618.56
2018-05-12T05:12:02.400Z,99618.89
2018-05-12T05:12:33.661Z,99617.09
2018-05-12T05:13:04.894Z,99615.66
2018-05-12T05:13:36.148Z,99620.83
2018-05-12T05:14:07.373Z,99612.95
2018-05-12T05:14:38.616Z,99617.52
2018-05-12T05:15:09.835Z,99621.72
2018-05-12T05:15:41.052Z,99617.48
2018-05-12T05:16:12.315Z,99619.82
2018-05-12T05:16:43.510Z,99611.22
2018-05-12T05:17:14.772Z,99610.33
2018-05-12T05:17:45.992Z,99612.58
2018-05-12T05:18:17.282Z,99617.78
2018-05-12T05:18:48.565Z,99616.78
2018-05-12T05:19:19.785Z,99612.30
2018-05-12T05:19:51.053Z,99618.42
2018-05-12T05:20:22.268Z,99615.66
2018-05-12T05:20:53.621Z,99616.89
2018-05-12T05:21:24.837Z,99617.19
2018-05-12T05:21:56.057Z,99616.62
2018-05-12T05:22:27.312Z,99616.24
2018-05-12T05:22:58.534Z,99614.59
2018-05-12T05:23:29.826Z,99618.12
2018-05-12T05:24:01.028Z,99620.06
2018-05-12T05:24:32.283Z,99615.25
2018-05-12T05:25:03.506Z,99621.08
2018-05-12T05:25:34.713Z,99617.63
2018-05-12T05:26:05.921Z,99618.64
2018-05-12T05:26:37.115Z,99615.46
2018-05-12T05:27:08.327Z,99621.06
2018-05-12T05:27:39.558Z,99619.93
2018-05-12T05:28:10.796Z,99622.53
2018-05-12T05:28:42.009Z,99619.19
2018-05-12T05:29:13.221Z,99618.06
2018-05-12T05:29:44.437Z,99618.73
2018-05-12T05:30:15.642Z,99622.66
2018-05-12T05:30:46.895Z,99617.52
2018-05-12T05:31:18.117Z,99615.18
2018-05-12T05:31:49.321Z,99608.45
2018-05-12T05:32:20.541Z,99613.48
2018-05-12T05:32:51.758Z,99614.04
2018-05-12T05:33:22.960Z,99620.14
2018-05-12T05:33:54.206Z,99615.39
2018-05-12T05:34:25.429Z,99619.45
2018-05-12T05:34:56.645Z,99613.76
2018-05-12T05:35:27.849Z,99613.49
2018-05-12T05:35:59.090Z,99618.29
2018-05-12T05:36:30.298Z,99619.59
2018-05-12T05:37:01.510Z,99615.28
2018-05-12T05:37:32.712Z,99616.31
2018-05-12T05:38:04.520Z,99620.38
2018-05-12T05:38:35.766Z,99618.59
2018-05-12T05:39:06.984Z,99622.52
2018-05-12T05:39:38.847Z,99617.69
2018-05-12T05:40:10.086Z,99622.39
2018-05-12T05:40:41.339Z,99620.59
2018-05-12T05:41:12.644Z,99620.44
2018-05-12T05:41:43.871Z,99620.37
2018-05-12T05:42:15.103Z,99621.11
2018-05-12T05:42:46.368Z,99625.03
2018-05-12T05:43:17.677Z,99619.28
2018-05-12T05:43:48.899Z,99628.48
2018-05-12T05:44:20.106Z,99622.05
2018-05-12T05:44:51.310Z,99628.75
2018-05-12T05:45:22.511Z,99624.36
2018-05-12T05:45:53.753Z,99615.92
2018-05-12T05:46:24.967Z,99624.17
2018-05-12T05:46:56.174Z,99622.66
2018-05-12T05:47:27.385Z,99623.56
2018-05-12T05:47:58.638Z,99625.36
2018-05-12T05:48:29.887Z,99608.50
2018-05-12T05:49:02.349Z,99627.05
2018-05-12T05:49:33.621Z,99627.63
2018-05-12T05:50:04.838Z,99628.78
2018-05-12T05:50:36.065Z,99626.33
2018-05-12T05:51:07.285Z,99623.92
2018-05-12T05:51:38.507Z,99630.23
2018-05-12T05:52:09.716Z,99629.41
2018-05-12T05:52:40.929Z,99630.79
2018-05-12T05:53:12.157Z,99631.88
2018-05-12T05:53:43.412Z,99630.41
2018-05-12T05:54:14.633Z,99629.79
2018-05-12T05:54:45.845Z,99630.64
2018-05-12T05:55:17.062Z,99635.45
2018-05-12T05:55:48.294Z,99638.94
2018-05-12T05:56:19.523Z,99635.69
2018-05-12T05:56:50.754Z,99634.00
2018-05-12T05:57:21.971Z,99634.42
2018-05-12T05:57:53.169Z,99634.03
2018-05-12T05:58:24.414Z,99636.72
2018-05-12T05:58:55.624Z,99635.67
2018-05-12T05:59:26.839Z,99636.58
2018-05-12T05:59:58.082Z,99637.33
2018-05-12T06:00:29.321Z,99636.72
2018-05-12T06:01:00.551Z,99631.23
2018-05-12T06:01:31.776Z,99635.02
2018-05-12T06:02:02.993Z,99633.75
2018-05-12T06:02:34.201Z,99633.82
2018-05-12T06:03:05.426Z,99634.17
2018-05-12T06:03:36.679Z,99633.61
2018-05-12T06:04:07.931Z,99628.64
2018-05-12T06:04:39.150Z,99635.70
2018-05-12T06:05:10.350Z,99633.67
2018-05-12T06:05:41.588Z,99636.64
2018-05-12T06:06:12.801Z,99635.05
2018-05-12T06:06:44.070Z,99638.30